CDT,Max TemperatureF,Mean TemperatureF,Min TemperatureF,Max Dew PointF,MeanDew PointF,Min DewpointF,Max Humidity, Mean Humidity, Min Humidity, Max Sea Level PressureIn, Mean Sea Level PressureIn, Min Sea Level PressureIn, Max VisibilityMiles, Mean VisibilityMiles, Min VisibilityMiles, Max Wind SpeedMPH, Mean Wind SpeedMPH, Max Gust SpeedMPH,PrecipitationIn, CloudCover, Events, WindDirDegrees
2013-10-1,91,77,63,63,58,54,78,55,29,29.91,29.86,29.81,10,10,10,14,7,21,0.00,0,,133
2013-10-2,90,79,69,69,66,61,91,66,38,29.96,29.89,29.82,10,10,10,15,8,25,0.00,2,,137
2013-10-3,93,83,73,70,66,60,87,62,33,29.89,29.83,29.74,10,10,10,15,10,24,0.00,1,,152
2013-10-4,91,80,71,67,65,63,83,61,40,29.87,29.82,29.78,10,10,10,16,9,26,0.00,1,,149
2013-10-5,78,64,50,66,49,34,93,67,37,30.14,30.04,29.83,10,10,4,22,9,32,0.06,5,Rain,3
2013-10-6,76,58,42,48,38,29,96,57,19,30.19,30.12,30.08,10,10,4,20,4,28,0.00,0,,323
2013-10-7,82,62,42,45,40,35,91,52,19,30.18,30.12,30.07,10,10,5,7,1,,0.00,0,,31
2013-10-8,86,68,50,45,41,36,67,39,17,30.09,30.02,29.94,10,10,10,14,4,21,0.00,0,,129
2013-10-9,85,71,57,52,47,42,66,46,23,30.03,29.98,29.92,10,10,10,15,7,22,0.03,0,,134
2013-10-10,84,72,60,61,57,52,80,59,38,30.01,29.93,29.83,10,10,10,17,8,24,0.00,0,,136
2013-10-11,90,79,68,66,62,57,80,60,33,29.90,29.84,29.79,10,10,10,14,9,21,0.00,2,,174
2013-10-12,88,76,66,67,55,43,94,55,22,30.07,29.97,29.86,10,10,7,12,3,9,0.00,0,,331
2013-10-13,75,70,64,66,65,62,95,82,65,30.22,30.13,30.07,10,9,2,9,4,,0.00,6,,82
2013-10-14,76,71,67,71,68,64,96,89,80,30.13,29.98,29.88,10,8,0,13,6,18,1.29,6,Rain,138
2013-10-15,72,61,50,69,56,47,95,89,83,30.11,30.01,29.88,10,10,7,18,8,29,0.40,6,Rain,348
2013-10-16,62,55,47,51,44,40,94,69,45,30.16,30.10,30.05,10,10,7,15,7,21,0.03,7,Rain,344
2013-10-17,72,55,38,46,43,38,98,68,33,30.13,30.05,29.96,10,10,10,9,2,,0.00,0,,152
2013-10-18,64,54,44,58,49,40,92,79,69,30.20,29.99,29.90,10,10,5,23,6,36,0.02,7,Rain,110
2013-10-19,66,50,36,40,36,32,96,66,28,30.24,30.16,30.07,10,10,10,14,7,21,0.00,1,,302
2013-10-20,76,58,39,53,45,37,95,65,40,30.06,29.92,29.81,10,10,10,15,5,23,0.00,0,,147
2013-10-21,62,54,47,54,50,45,94,78,62,30.15,29.99,29.85,10,10,10,14,5,21,0.00,2,,12
2013-10-22,78,56,35,45,40,35,98,64,23,30.19,30.12,30.03,10,9,0,10,2,16,0.00,0,Fog,239
2013-10-23,83,64,45,48,42,37,89,53,20,30.14,30.09,30.02,10,10,10,10,3,16,0.00,0,,199
2013-10-24,77,60,43,49,44,41,91,58,29,30.28,30.18,30.07,10,10,10,12,4,16,0.00,0,,43
2013-10-25,73,58,43,52,46,38,81,63,45,30.38,30.29,30.20,10,10,10,12,5,18,0.00,0,,109
2013-10-26,80,68,56,61,57,50,96,75,49,30.21,30.11,29.99,10,10,10,15,7,24,0.00,4,Rain,163
2013-10-27,71,64,56,58,54,51,97,81,50,30.15,30.07,29.99,10,7,0,10,6,,0.00,5,Fog,6
2013-10-28,76,65,54,64,60,54,97,84,64,30.06,29.99,29.94,10,8,0,16,6,23,0.00,5,Fog,132
2013-10-29,82,75,68,68,66,63,86,74,56,30.03,29.97,29.93,10,10,10,16,11,24,0.00,5,,147
2013-10-30,75,72,68,68,66,59,88,81,72,29.97,29.88,29.74,10,10,10,13,9,21,0.01,4,Rain,152
2013-10-31,70,59,48,66,46,32,94,56,30,29.87,29.80,29.69,10,10,10,28,9,34,0.00,1,,259